sensor_id;sensor_type;location;lat;lon;timestamp;P1;durP1;ratioP1;P2;durP2;ratioP2
73898;SDS011;62234;50.892;12.724;2022-08-04T00:00:16;1.65;;;1.10;;
73898;SDS011;62234;50.892;12.724;2022-08-04T00:05:22;2.28;;;1.40;;
73898;SDS011;62234;50.892;12.724;2022-08-04T00:08:04;2.20;;;1.15;;
73898;SDS011;62234;50.892;12.724;2022-08-04T00:10:30;2.83;;;1.00;;
73898;SDS011;62234;50.892;12.724;2022-08-04T00:12:59;1.85;;;1.30;;
73898;SDS011;62234;50.892;12.724;2022-08-04T00:15:26;4.53;;;1.20;;
73898;SDS011;62234;50.892;12.724;2022-08-04T00:17:55;1.40;;;1.30;;
73898;SDS011;62234;50.892;12.724;2022-08-04T00:20:22;2.10;;;1.13;;
73898;SDS011;62234;50.892;12.724;2022-08-04T00:22:49;1.33;;;1.20;;
73898;SDS011;62234;50.892;12.724;2022-08-04T00:25:16;1.70;;;1.15;;
73898;SDS011;62234;50.892;12.724;2022-08-04T00:27:43;2.15;;;1.25;;
73898;SDS011;62234;50.892;12.724;2022-08-04T00:30:10;1.65;;;1.00;;
73898;SDS011;62234;50.892;12.724;2022-08-04T00:32:37;1.33;;;1.23;;
73898;SDS011;62234;50.892;12.724;2022-08-04T00:35:05;4.22;;;0.98;;
73898;SDS011;62234;50.892;12.724;2022-08-04T00:37:31;1.30;;;1.20;;
73898;SDS011;62234;50.892;12.724;2022-08-04T00:39:57;3.17;;;1.00;;
73898;SDS011;62234;50.892;12.724;2022-08-04T00:42:34;2.63;;;1.17;;
73898;SDS011;62234;50.892;12.724;2022-08-04T00:45:13;1.63;;;1.23;;
73898;SDS011;62234;50.892;12.724;2022-08-04T00:53:00;1.10;;;1.00;;
73898;SDS011;62234;50.892;12.724;2022-08-04T01:01:01;1.45;;;1.33;;
73898;SDS011;62234;50.892;12.724;2022-08-04T01:16:51;0.95;;;0.95;;
73898;SDS011;62234;50.892;12.724;2022-08-04T01:27:02;1.35;;;1.10;;
73898;SDS011;62234;50.892;12.724;2022-08-04T01:29:35;1.40;;;1.30;;
73898;SDS011;62234;50.892;12.724;2022-08-04T01:32:12;1.15;;;1.05;;
73898;SDS011;62234;50.892;12.724;2022-08-04T01:34:45;1.83;;;1.02;;
73898;SDS011;62234;50.892;12.724;2022-08-04T01:39:59;1.55;;;0.95;;
73898;SDS011;62234;50.892;12.724;2022-08-04T01:42:27;1.00;;;1.00;;
73898;SDS011;62234;50.892;12.724;2022-08-04T01:44:56;1.52;;;1.27;;
73898;SDS011;62234;50.892;12.724;2022-08-04T01:47:23;1.55;;;1.02;;
73898;SDS011;62234;50.892;12.724;2022-08-04T01:49:52;0.80;;;0.80;;
73898;SDS011;62234;50.892;12.724;2022-08-04T01:52:19;1.63;;;1.38;;
73898;SDS011;62234;50.892;12.724;2022-08-04T01:54:45;1.30;;;1.13;;
73898;SDS011;62234;50.892;12.724;2022-08-04T01:57:12;1.40;;;1.30;;
73898;SDS011;62234;50.892;12.724;2022-08-04T01:59:40;1.10;;;1.10;;
73898;SDS011;62234;50.892;12.724;2022-08-04T02:02:08;1.30;;;1.20;;
73898;SDS011;62234;50.892;12.724;2022-08-04T02:04:34;1.67;;;1.40;;
73898;SDS011;62234;50.892;12.724;2022-08-04T02:12:03;1.00;;;1.00;;
73898;SDS011;62234;50.892;12.724;2022-08-04T02:14:30;2.88;;;1.33;;
73898;SDS011;62234;50.892;12.724;2022-08-04T02:17:28;2.75;;;1.00;;
73898;SDS011;62234;50.892;12.724;2022-08-04T02:20:03;2.60;;;1.00;;
73898;SDS011;62234;50.892;12.724;2022-08-04T02:22:32;1.45;;;1.35;;
73898;SDS011;62234;50.892;12.724;2022-08-04T02:25:08;1.40;;;1.30;;
73898;SDS011;62234;50.892;12.724;2022-08-04T02:27:39;3.17;;;1.30;;
73898;SDS011;62234;50.892;12.724;2022-08-04T02:30:09;1.70;;;1.13;;
73898;SDS011;62234;50.892;12.724;2022-08-04T02:32:35;1.52;;;1.42;;
73898;SDS011;62234;50.892;12.724;2022-08-04T02:35:07;1.10;;;1.10;;
73898;SDS011;62234;50.892;12.724;2022-08-04T02:37:33;1.30;;;1.20;;
73898;SDS011;62234;50.892;12.724;2022-08-04T02:40:03;1.98;;;1.15;;
73898;SDS011;62234;50.892;12.724;2022-08-04T02:42:30;1.58;;;1.13;;
73898;SDS011;62234;50.892;12.724;2022-08-04T02:44:57;1.20;;;1.20;;
73898;SDS011;62234;50.892;12.724;2022-08-04T02:47:24;1.38;;;1.15;;
73898;SDS011;62234;50.892;12.724;2022-08-04T02:49:51;2.55;;;0.98;;
73898;SDS011;62234;50.892;12.724;2022-08-04T02:52:17;2.72;;;1.10;;
73898;SDS011;62234;50.892;12.724;2022-08-04T02:54:43;1.20;;;1.10;;
73898;SDS011;62234;50.892;12.724;2022-08-04T02:57:13;1.95;;;1.20;;
73898;SDS011;62234;50.892;12.724;2022-08-04T03:02:08;1.00;;;1.00;;
73898;SDS011;62234;50.892;12.724;2022-08-04T03:04:42;1.20;;;1.10;;
73898;SDS011;62234;50.892;12.724;2022-08-04T03:07:27;1.33;;;1.08;;
73898;SDS011;62234;50.892;12.724;2022-08-04T03:20:43;1.73;;;1.10;;
73898;SDS011;62234;50.892;12.724;2022-08-04T03:23:19;1.77;;;1.30;;
73898;SDS011;62234;50.892;12.724;2022-08-04T03:26:07;2.33;;;1.02;;
73898;SDS011;62234;50.892;12.724;2022-08-04T03:31:24;1.17;;;1.08;;
73898;SDS011;62234;50.892;12.724;2022-08-04T03:47:42;1.15;;;1.10;;
73898;SDS011;62234;50.892;12.724;2022-08-04T04:03:26;1.20;;;1.10;;
73898;SDS011;62234;50.892;12.724;2022-08-04T04:08:28;1.63;;;1.10;;
73898;SDS011;62234;50.892;12.724;2022-08-04T04:13:29;1.20;;;1.10;;
73898;SDS011;62234;50.892;12.724;2022-08-04T04:18:48;1.13;;;1.10;;
73898;SDS011;62234;50.892;12.724;2022-08-04T04:21:27;1.23;;;1.13;;
73898;SDS011;62234;50.892;12.724;2022-08-04T04:24:17;1.77;;;1.10;;
73898;SDS011;62234;50.892;12.724;2022-08-04T04:26:54;1.02;;;1.00;;
73898;SDS011;62234;50.892;12.724;2022-08-04T04:34:39;1.15;;;1.05;;
73898;SDS011;62234;50.892;12.724;2022-08-04T04:39:42;2.05;;;1.10;;
73898;SDS011;62234;50.892;12.724;2022-08-04T04:50:02;1.00;;;0.90;;
73898;SDS011;62234;50.892;12.724;2022-08-04T04:57:35;1.40;;;1.00;;
73898;SDS011;62234;50.892;12.724;2022-08-04T05:00:05;1.20;;;1.10;;
73898;SDS011;62234;50.892;12.724;2022-08-04T05:15:58;1.75;;;1.00;;
73898;SDS011;62234;50.892;12.724;2022-08-04T05:18:26;1.85;;;1.20;;
73898;SDS011;62234;50.892;12.724;2022-08-04T05:20:54;1.10;;;0.90;;
73898;SDS011;62234;50.892;12.724;2022-08-04T05:23:22;1.10;;;1.00;;
73898;SDS011;62234;50.892;12.724;2022-08-04T05:25:55;3.40;;;1.30;;
73898;SDS011;62234;50.892;12.724;2022-08-04T05:28:32;1.80;;;1.10;;
73898;SDS011;62234;50.892;12.724;2022-08-04T05:30:59;4.80;;;1.15;;
73898;SDS011;62234;50.892;12.724;2022-08-04T05:33:26;0.98;;;0.98;;
73898;SDS011;62234;50.892;12.724;2022-08-04T05:35:56;3.70;;;0.90;;
73898;SDS011;62234;50.892;12.724;2022-08-04T05:38:25;1.27;;;0.98;;
73898;SDS011;62234;50.892;12.724;2022-08-04T05:40:51;1.20;;;0.88;;
73898;SDS011;62234;50.892;12.724;2022-08-04T05:43:19;2.25;;;0.80;;
73898;SDS011;62234;50.892;12.724;2022-08-04T05:45:46;2.03;;;1.33;;
73898;SDS011;62234;50.892;12.724;2022-08-04T05:48:12;2.55;;;1.05;;
73898;SDS011;62234;50.892;12.724;2022-08-04T05:50:39;1.08;;;0.98;;
73898;SDS011;62234;50.892;12.724;2022-08-04T05:53:05;1.52;;;1.10;;
73898;SDS011;62234;50.892;12.724;2022-08-04T05:55:32;2.45;;;1.10;;
73898;SDS011;62234;50.892;12.724;2022-08-04T05:57:58;1.38;;;1.10;;
73898;SDS011;62234;50.892;12.724;2022-08-04T06:00:25;1.33;;;1.08;;
73898;SDS011;62234;50.892;12.724;2022-08-04T06:02:51;1.20;;;1.10;;
73898;SDS011;62234;50.892;12.724;2022-08-04T06:05:17;0.75;;;0.75;;
73898;SDS011;62234;50.892;12.724;2022-08-04T06:07:44;1.15;;;1.05;;
73898;SDS011;62234;50.892;12.724;2022-08-04T06:10:10;0.90;;;0.90;;
73898;SDS011;62234;50.892;12.724;2022-08-04T06:12:51;2.42;;;0.80;;
73898;SDS011;62234;50.892;12.724;2022-08-04T06:15:26;1.05;;;0.95;;
73898;SDS011;62234;50.892;12.724;2022-08-04T06:17:54;1.08;;;1.08;;
73898;SDS011;62234;50.892;12.724;2022-08-04T06:20:23;0.93;;;0.90;;
73898;SDS011;62234;50.892;12.724;2022-08-04T06:22:54;0.80;;;0.80;;
73898;SDS011;62234;50.892;12.724;2022-08-04T06:25:23;0.73;;;0.70;;
73898;SDS011;62234;50.892;12.724;2022-08-04T06:27:49;1.27;;;0.90;;
73898;SDS011;62234;50.892;12.724;2022-08-04T06:30:16;2.53;;;1.10;;
73898;SDS011;62234;50.892;12.724;2022-08-04T06:32:44;1.13;;;1.02;;
73898;SDS011;62234;50.892;12.724;2022-08-04T06:35:20;2.08;;;1.05;;
73898;SDS011;62234;50.892;12.724;2022-08-04T06:37:46;1.27;;;1.02;;
73898;SDS011;62234;50.892;12.724;2022-08-04T06:40:13;1.88;;;1.20;;
73898;SDS011;62234;50.892;12.724;2022-08-04T06:42:40;2.13;;;1.15;;
73898;SDS011;62234;50.892;12.724;2022-08-04T06:45:09;1.75;;;0.98;;
73898;SDS011;62234;50.892;12.724;2022-08-04T06:47:39;1.85;;;1.33;;
73898;SDS011;62234;50.892;12.724;2022-08-04T06:50:06;0.93;;;0.93;;
73898;SDS011;62234;50.892;12.724;2022-08-04T06:52:32;2.17;;;1.00;;
73898;SDS011;62234;50.892;12.724;2022-08-04T06:54:58;0.90;;;0.90;;
73898;SDS011;62234;50.892;12.724;2022-08-04T06:57:28;1.95;;;1.17;;
73898;SDS011;62234;50.892;12.724;2022-08-04T06:59:55;1.02;;;0.90;;
73898;SDS011;62234;50.892;12.724;2022-08-04T07:02:23;0.80;;;0.80;;
73898;SDS011;62234;50.892;12.724;2022-08-04T07:04:50;1.30;;;1.05;;
73898;SDS011;62234;50.892;12.724;2022-08-04T07:07:16;1.95;;;1.05;;
73898;SDS011;62234;50.892;12.724;2022-08-04T07:09:43;1.67;;;1.23;;
73898;SDS011;62234;50.892;12.724;2022-08-04T07:12:09;3.38;;;0.95;;
73898;SDS011;62234;50.892;12.724;2022-08-04T07:14:35;1.02;;;1.02;;
73898;SDS011;62234;50.892;12.724;2022-08-04T07:17:05;3.30;;;1.05;;
73898;SDS011;62234;50.892;12.724;2022-08-04T07:19:32;1.58;;;1.00;;
73898;SDS011;62234;50.892;12.724;2022-08-04T07:22:01;3.67;;;1.42;;
73898;SDS011;62234;50.892;12.724;2022-08-04T07:24:28;1.85;;;1.10;;
73898;SDS011;62234;50.892;12.724;2022-08-04T07:26:55;2.42;;;1.00;;
73898;SDS011;62234;50.892;12.724;2022-08-04T07:29:21;1.75;;;0.90;;
73898;SDS011;62234;50.892;12.724;2022-08-04T07:31:47;0.82;;;0.82;;
73898;SDS011;62234;50.892;12.724;2022-08-04T07:34:14;2.55;;;1.25;;
73898;SDS011;62234;50.892;12.724;2022-08-04T07:36:40;2.28;;;0.93;;
73898;SDS011;62234;50.892;12.724;2022-08-04T07:39:06;2.40;;;1.00;;
73898;SDS011;62234;50.892;12.724;2022-08-04T07:41:31;2.53;;;0.82;;
73898;SDS011;62234;50.892;12.724;2022-08-04T07:43:58;0.73;;;0.73;;
73898;SDS011;62234;50.892;12.724;2022-08-04T07:46:28;1.42;;;1.10;;
73898;SDS011;62234;50.892;12.724;2022-08-04T07:48:54;1.35;;;1.13;;
73898;SDS011;62234;50.892;12.724;2022-08-04T07:51:20;1.20;;;1.05;;
73898;SDS011;62234;50.892;12.724;2022-08-04T07:53:47;2.47;;;0.95;;
73898;SDS011;62234;50.892;12.724;2022-08-04T07:56:14;2.92;;;1.10;;
73898;SDS011;62234;50.892;12.724;2022-08-04T07:58:40;1.42;;;1.00;;
73898;SDS011;62234;50.892;12.724;2022-08-04T08:01:07;1.13;;;1.02;;
73898;SDS011;62234;50.892;12.724;2022-08-04T08:03:34;1.50;;;1.10;;
73898;SDS011;62234;50.892;12.724;2022-08-04T08:06:00;2.78;;;1.00;;
73898;SDS011;62234;50.892;12.724;2022-08-04T08:08:26;1.02;;;0.80;;
73898;SDS011;62234;50.892;12.724;2022-08-04T08:10:52;0.93;;;0.90;;
73898;SDS011;62234;50.892;12.724;2022-08-04T08:13:18;3.70;;;1.40;;
73898;SDS011;62234;50.892;12.724;2022-08-04T08:15:44;2.67;;;1.05;;
73898;SDS011;62234;50.892;12.724;2022-08-04T08:18:11;1.00;;;1.00;;
73898;SDS011;62234;50.892;12.724;2022-08-04T08:20:37;1.95;;;1.15;;
73898;SDS011;62234;50.892;12.724;2022-08-04T08:23:03;1.10;;;1.10;;
73898;SDS011;62234;50.892;12.724;2022-08-04T08:25:30;2.20;;;0.88;;
73898;SDS011;62234;50.892;12.724;2022-08-04T08:27:56;1.05;;;1.05;;
73898;SDS011;62234;50.892;12.724;2022-08-04T08:30:23;3.47;;;1.00;;
73898;SDS011;62234;50.892;12.724;2022-08-04T08:32:49;1.08;;;1.00;;
73898;SDS011;62234;50.892;12.724;2022-08-04T08:35:17;1.25;;;0.85;;
73898;SDS011;62234;50.892;12.724;2022-08-04T08:37:44;1.98;;;0.95;;
73898;SDS011;62234;50.892;12.724;2022-08-04T08:40:32;1.55;;;1.20;;
73898;SDS011;62234;50.892;12.724;2022-08-04T08:45:50;1.80;;;1.10;;
73898;SDS011;62234;50.892;12.724;2022-08-04T08:58:57;2.22;;;1.15;;
73898;SDS011;62234;50.892;12.724;2022-08-04T09:06:50;1.40;;;1.25;;
73898;SDS011;62234;50.892;12.724;2022-08-04T09:12:25;3.65;;;1.25;;
73898;SDS011;62234;50.892;12.724;2022-08-04T09:15:03;2.33;;;1.02;;
73898;SDS011;62234;50.892;12.724;2022-08-04T09:17:39;6.63;;;1.30;;
73898;SDS011;62234;50.892;12.724;2022-08-04T09:20:08;1.48;;;0.82;;
73898;SDS011;62234;50.892;12.724;2022-08-04T09:22:42;1.30;;;1.20;;
73898;SDS011;62234;50.892;12.724;2022-08-04T09:25:22;1.75;;;0.95;;
73898;SDS011;62234;50.892;12.724;2022-08-04T09:27:56;3.15;;;1.40;;
73898;SDS011;62234;50.892;12.724;2022-08-04T09:30:31;1.33;;;1.08;;
73898;SDS011;62234;50.892;12.724;2022-08-04T09:33:06;3.72;;;1.10;;
73898;SDS011;62234;50.892;12.724;2022-08-04T09:43:15;1.98;;;0.90;;
73898;SDS011;62234;50.892;12.724;2022-08-04T09:45:44;3.35;;;1.40;;
73898;SDS011;62234;50.892;12.724;2022-08-04T09:48:14;1.60;;;1.48;;
73898;SDS011;62234;50.892;12.724;2022-08-04T09:50:41;0.90;;;0.90;;
73898;SDS011;62234;50.892;12.724;2022-08-04T09:55:57;4.70;;;1.05;;
73898;SDS011;62234;50.892;12.724;2022-08-04T09:58:39;3.47;;;1.10;;
73898;SDS011;62234;50.892;12.724;2022-08-04T10:01:10;1.88;;;1.20;;
73898;SDS011;62234;50.892;12.724;2022-08-04T10:03:38;0.75;;;0.75;;
73898;SDS011;62234;50.892;12.724;2022-08-04T10:14:02;2.38;;;1.02;;
73898;SDS011;62234;50.892;12.724;2022-08-04T10:22:30;1.88;;;1.30;;
73898;SDS011;62234;50.892;12.724;2022-08-04T10:24:52;3.35;;;1.48;;
73898;SDS011;62234;50.892;12.724;2022-08-04T10:27:23;2.17;;;1.10;;
73898;SDS011;62234;50.892;12.724;2022-08-04T10:29:50;1.10;;;1.00;;
73898;SDS011;62234;50.892;12.724;2022-08-04T10:40:04;2.45;;;1.20;;
73898;SDS011;62234;50.892;12.724;2022-08-04T10:45:17;2.83;;;1.10;;
73898;SDS011;62234;50.892;12.724;2022-08-04T10:47:49;2.10;;;1.70;;
73898;SDS011;62234;50.892;12.724;2022-08-04T10:50:15;1.98;;;1.15;;
73898;SDS011;62234;50.892;12.724;2022-08-04T10:55:31;2.25;;;1.20;;
73898;SDS011;62234;50.892;12.724;2022-08-04T10:57:58;1.92;;;1.13;;
73898;SDS011;62234;50.892;12.724;2022-08-04T11:00:26;3.53;;;1.10;;
73898;SDS011;62234;50.892;12.724;2022-08-04T11:08:10;1.30;;;1.30;;
73898;SDS011;62234;50.892;12.724;2022-08-04T11:10:39;1.27;;;1.17;;
73898;SDS011;62234;50.892;12.724;2022-08-04T11:13:09;3.10;;;1.17;;
73898;SDS011;62234;50.892;12.724;2022-08-04T11:15:36;2.88;;;1.33;;
73898;SDS011;62234;50.892;12.724;2022-08-04T11:18:04;1.40;;;1.30;;
73898;SDS011;62234;50.892;12.724;2022-08-04T11:23:05;1.35;;;1.25;;
73898;SDS011;62234;50.892;12.724;2022-08-04T11:25:34;3.53;;;1.20;;
73898;SDS011;62234;50.892;12.724;2022-08-04T11:30:31;1.40;;;1.30;;
73898;SDS011;62234;50.892;12.724;2022-08-04T11:33:15;1.33;;;1.25;;
73898;SDS011;62234;50.892;12.724;2022-08-04T11:35:54;1.70;;;1.35;;
73898;SDS011;62234;50.892;12.724;2022-08-04T11:40:59;1.33;;;1.25;;
73898;SDS011;62234;50.892;12.724;2022-08-04T11:46:38;1.77;;;1.23;;
73898;SDS011;62234;50.892;12.724;2022-08-04T11:49:14;2.05;;;1.25;;
73898;SDS011;62234;50.892;12.724;2022-08-04T11:51:41;2.97;;;1.33;;
73898;SDS011;62234;50.892;12.724;2022-08-04T11:54:09;2.08;;;1.55;;
73898;SDS011;62234;50.892;12.724;2022-08-04T11:56:36;1.65;;;1.50;;
73898;SDS011;62234;50.892;12.724;2022-08-04T11:59:03;1.52;;;1.42;;
73898;SDS011;62234;50.892;12.724;2022-08-04T12:04:26;4.05;;;1.00;;
73898;SDS011;62234;50.892;12.724;2022-08-04T12:09:43;2.08;;;1.40;;
73898;SDS011;62234;50.892;12.724;2022-08-04T12:17:04;1.95;;;1.50;;
73898;SDS011;62234;50.892;12.724;2022-08-04T12:19:33;1.30;;;1.20;;
73898;SDS011;62234;50.892;12.724;2022-08-04T12:22:04;3.05;;;1.15;;
73898;SDS011;62234;50.892;12.724;2022-08-04T12:24:41;2.38;;;1.50;;
73898;SDS011;62234;50.892;12.724;2022-08-04T12:27:15;2.15;;;1.20;;
73898;SDS011;62234;50.892;12.724;2022-08-04T12:29:42;2.28;;;1.70;;
73898;SDS011;62234;50.892;12.724;2022-08-04T12:32:16;1.67;;;1.58;;
73898;SDS011;62234;50.892;12.724;2022-08-04T12:34:48;1.75;;;1.65;;
73898;SDS011;62234;50.892;12.724;2022-08-04T12:40:02;1.65;;;1.55;;
73898;SDS011;62234;50.892;12.724;2022-08-04T12:42:32;1.83;;;1.30;;
73898;SDS011;62234;50.892;12.724;2022-08-04T12:45:07;2.08;;;1.70;;
73898;SDS011;62234;50.892;12.724;2022-08-04T12:47:34;2.33;;;1.40;;
73898;SDS011;62234;50.892;12.724;2022-08-04T12:50:01;1.50;;;1.40;;
73898;SDS011;62234;50.892;12.724;2022-08-04T12:52:27;1.58;;;1.48;;
73898;SDS011;62234;50.892;12.724;2022-08-04T12:54:55;1.60;;;1.50;;
73898;SDS011;62234;50.892;12.724;2022-08-04T12:57:22;3.22;;;1.50;;
73898;SDS011;62234;50.892;12.724;2022-08-04T12:59:48;1.35;;;1.33;;
73898;SDS011;62234;50.892;12.724;2022-08-04T13:02:29;1.50;;;1.40;;
73898;SDS011;62234;50.892;12.724;2022-08-04T13:04:57;1.48;;;1.38;;
73898;SDS011;62234;50.892;12.724;2022-08-04T13:07:24;2.45;;;1.30;;
73898;SDS011;62234;50.892;12.724;2022-08-04T13:09:51;2.63;;;1.52;;
73898;SDS011;62234;50.892;12.724;2022-08-04T13:12:22;1.15;;;1.15;;
73898;SDS011;62234;50.892;12.724;2022-08-04T13:14:56;1.25;;;1.20;;
73898;SDS011;62234;50.892;12.724;2022-08-04T13:17:23;1.63;;;1.10;;
73898;SDS011;62234;50.892;12.724;2022-08-04T13:19:49;1.88;;;1.17;;
73898;SDS011;62234;50.892;12.724;2022-08-04T13:22:24;1.50;;;1.40;;
73898;SDS011;62234;50.892;12.724;2022-08-04T13:24:50;1.65;;;1.50;;
73898;SDS011;62234;50.892;12.724;2022-08-04T13:27:17;3.45;;;1.67;;
73898;SDS011;62234;50.892;12.724;2022-08-04T13:29:44;3.28;;;1.50;;
73898;SDS011;62234;50.892;12.724;2022-08-04T13:32:14;1.60;;;1.50;;
73898;SDS011;62234;50.892;12.724;2022-08-04T13:34:41;1.50;;;1.40;;
73898;SDS011;62234;50.892;12.724;2022-08-04T13:37:07;1.52;;;1.42;;
73898;SDS011;62234;50.892;12.724;2022-08-04T13:39:34;2.38;;;1.60;;
73898;SDS011;62234;50.892;12.724;2022-08-04T13:42:02;3.15;;;1.58;;
73898;SDS011;62234;50.892;12.724;2022-08-04T13:44:30;1.60;;;1.48;;
73898;SDS011;62234;50.892;12.724;2022-08-04T13:47:02;1.23;;;1.23;;
73898;SDS011;62234;50.892;12.724;2022-08-04T13:49:29;1.65;;;1.50;;
73898;SDS011;62234;50.892;12.724;2022-08-04T13:51:58;1.63;;;1.33;;
73898;SDS011;62234;50.892;12.724;2022-08-04T13:54:45;2.28;;;1.48;;
73898;SDS011;62234;50.892;12.724;2022-08-04T13:57:12;1.90;;;1.60;;
73898;SDS011;62234;50.892;12.724;2022-08-04T13:59:39;1.63;;;1.52;;
73898;SDS011;62234;50.892;12.724;2022-08-04T14:02:08;1.55;;;1.42;;
73898;SDS011;62234;50.892;12.724;2022-08-04T14:04:42;1.67;;;1.58;;
73898;SDS011;62234;50.892;12.724;2022-08-04T14:07:15;1.73;;;1.63;;
73898;SDS011;62234;50.892;12.724;2022-08-04T14:09:41;1.35;;;1.35;;
73898;SDS011;62234;50.892;12.724;2022-08-04T14:12:08;2.28;;;1.55;;
73898;SDS011;62234;50.892;12.724;2022-08-04T14:14:36;3.97;;;1.50;;
73898;SDS011;62234;50.892;12.724;2022-08-04T14:17:09;1.70;;;1.60;;
73898;SDS011;62234;50.892;12.724;2022-08-04T14:22:30;3.33;;;1.52;;
73898;SDS011;62234;50.892;12.724;2022-08-04T14:30:26;2.00;;;1.80;;
73898;SDS011;62234;50.892;12.724;2022-08-04T14:32:52;2.08;;;1.58;;
73898;SDS011;62234;50.892;12.724;2022-08-04T14:35:18;1.88;;;1.50;;
73898;SDS011;62234;50.892;12.724;2022-08-04T14:37:51;1.52;;;1.42;;
73898;SDS011;62234;50.892;12.724;2022-08-04T14:40:27;1.42;;;1.42;;
73898;SDS011;62234;50.892;12.724;2022-08-04T14:42:54;1.88;;;1.45;;
73898;SDS011;62234;50.892;12.724;2022-08-04T14:45:30;3.40;;;1.60;;
73898;SDS011;62234;50.892;12.724;2022-08-04T14:47:56;1.83;;;1.73;;
73898;SDS011;62234;50.892;12.724;2022-08-04T14:50:45;1.77;;;1.67;;
73898;SDS011;62234;50.892;12.724;2022-08-04T14:53:13;1.73;;;1.38;;
73898;SDS011;62234;50.892;12.724;2022-08-04T14:55:44;2.03;;;1.52;;
73898;SDS011;62234;50.892;12.724;2022-08-04T14:58:17;1.58;;;1.48;;
73898;SDS011;62234;50.892;12.724;2022-08-04T15:00:44;1.67;;;1.58;;
73898;SDS011;62234;50.892;12.724;2022-08-04T15:03:10;1.55;;;1.45;;
73898;SDS011;62234;50.892;12.724;2022-08-04T15:05:38;2.00;;;1.50;;
73898;SDS011;62234;50.892;12.724;2022-08-04T15:08:04;1.83;;;1.65;;
73898;SDS011;62234;50.892;12.724;2022-08-04T15:10:30;2.03;;;1.65;;
73898;SDS011;62234;50.892;12.724;2022-08-04T15:12:57;3.72;;;1.50;;
73898;SDS011;62234;50.892;12.724;2022-08-04T15:15:23;1.35;;;1.25;;
73898;SDS011;62234;50.892;12.724;2022-08-04T15:17:51;4.90;;;1.60;;
73898;SDS011;62234;50.892;12.724;2022-08-04T15:20:17;2.25;;;1.83;;
73898;SDS011;62234;50.892;12.724;2022-08-04T15:22:43;2.00;;;1.50;;
73898;SDS011;62234;50.892;12.724;2022-08-04T15:25:09;2.65;;;1.67;;
73898;SDS011;62234;50.892;12.724;2022-08-04T15:27:36;3.78;;;1.50;;
73898;SDS011;62234;50.892;12.724;2022-08-04T15:30:04;1.52;;;1.42;;
73898;SDS011;62234;50.892;12.724;2022-08-04T15:32:31;1.67;;;1.58;;
73898;SDS011;62234;50.892;12.724;2022-08-04T15:35:01;2.97;;;1.65;;
73898;SDS011;62234;50.892;12.724;2022-08-04T15:37:28;2.38;;;1.50;;
73898;SDS011;62234;50.892;12.724;2022-08-04T15:39:58;1.77;;;1.23;;
73898;SDS011;62234;50.892;12.724;2022-08-04T15:42:35;2.80;;;1.35;;
73898;SDS011;62234;50.892;12.724;2022-08-04T15:45:20;5.18;;;1.63;;
73898;SDS011;62234;50.892;12.724;2022-08-04T15:50:25;1.13;;;1.13;;
73898;SDS011;62234;50.892;12.724;2022-08-04T15:53:02;1.70;;;1.60;;
73898;SDS011;62234;50.892;12.724;2022-08-04T15:55:41;1.67;;;1.58;;
73898;SDS011;62234;50.892;12.724;2022-08-04T15:58:07;2.00;;;1.67;;
73898;SDS011;62234;50.892;12.724;2022-08-04T16:06:02;1.25;;;1.25;;
73898;SDS011;62234;50.892;12.724;2022-08-04T16:18:49;1.60;;;1.50;;
73898;SDS011;62234;50.892;12.724;2022-08-04T16:21:16;1.40;;;1.40;;
73898;SDS011;62234;50.892;12.724;2022-08-04T16:24:27;1.90;;;1.30;;
73898;SDS011;62234;50.892;12.724;2022-08-04T16:29:01;3.70;;;1.50;;
73898;SDS011;62234;50.892;12.724;2022-08-04T16:31:27;1.77;;;1.60;;
73898;SDS011;62234;50.892;12.724;2022-08-04T16:33:58;1.52;;;1.42;;
73898;SDS011;62234;50.892;12.724;2022-08-04T16:39:13;1.65;;;1.55;;
73898;SDS011;62234;50.892;12.724;2022-08-04T16:41:43;2.08;;;1.40;;
73898;SDS011;62234;50.892;12.724;2022-08-04T16:47:00;1.77;;;1.67;;
73898;SDS011;62234;50.892;12.724;2022-08-04T16:49:28;1.70;;;1.60;;
73898;SDS011;62234;50.892;12.724;2022-08-04T16:51:54;1.85;;;1.55;;
73898;SDS011;62234;50.892;12.724;2022-08-04T16:54:28;1.63;;;1.52;;
73898;SDS011;62234;50.892;12.724;2022-08-04T16:56:54;1.75;;;1.65;;
73898;SDS011;62234;50.892;12.724;2022-08-04T16:59:20;2.15;;;1.40;;
73898;SDS011;62234;50.892;12.724;2022-08-04T17:01:46;1.75;;;1.58;;
73898;SDS011;62234;50.892;12.724;2022-08-04T17:04:13;1.45;;;1.40;;
73898;SDS011;62234;50.892;12.724;2022-08-04T17:06:43;1.90;;;1.80;;
73898;SDS011;62234;50.892;12.724;2022-08-04T17:09:14;1.73;;;1.63;;
73898;SDS011;62234;50.892;12.724;2022-08-04T17:11:41;4.40;;;1.85;;
73898;SDS011;62234;50.892;12.724;2022-08-04T17:17:12;1.73;;;1.63;;
73898;SDS011;62234;50.892;12.724;2022-08-04T17:19:37;1.63;;;1.50;;
73898;SDS011;62234;50.892;12.724;2022-08-04T17:22:05;3.50;;;1.73;;
73898;SDS011;62234;50.892;12.724;2022-08-04T17:24:33;3.53;;;1.95;;
73898;SDS011;62234;50.892;12.724;2022-08-04T17:27:00;3.55;;;1.80;;
73898;SDS011;62234;50.892;12.724;2022-08-04T17:29:26;1.73;;;1.63;;
73898;SDS011;62234;50.892;12.724;2022-08-04T17:31:56;1.70;;;1.60;;
73898;SDS011;62234;50.892;12.724;2022-08-04T17:34:22;2.42;;;1.63;;
73898;SDS011;62234;50.892;12.724;2022-08-04T17:36:49;3.50;;;1.88;;
73898;SDS011;62234;50.892;12.724;2022-08-04T17:39:19;2.00;;;1.83;;
73898;SDS011;62234;50.892;12.724;2022-08-04T17:41:47;2.50;;;1.60;;
73898;SDS011;62234;50.892;12.724;2022-08-04T17:44:20;2.28;;;1.90;;
73898;SDS011;62234;50.892;12.724;2022-08-04T17:46:46;4.78;;;1.77;;
73898;SDS011;62234;50.892;12.724;2022-08-04T17:54:18;1.77;;;1.67;;
73898;SDS011;62234;50.892;12.724;2022-08-04T17:56:45;3.05;;;1.98;;
73898;SDS011;62234;50.892;12.724;2022-08-04T17:59:18;1.88;;;1.77;;
73898;SDS011;62234;50.892;12.724;2022-08-04T18:06:57;2.63;;;2.33;;
73898;SDS011;62234;50.892;12.724;2022-08-04T18:09:24;4.72;;;2.28;;
73898;SDS011;62234;50.892;12.724;2022-08-04T18:11:57;2.22;;;2.08;;
73898;SDS011;62234;50.892;12.724;2022-08-04T18:14:24;5.68;;;2.40;;
73898;SDS011;62234;50.892;12.724;2022-08-04T18:16:50;6.20;;;1.98;;
73898;SDS011;62234;50.892;12.724;2022-08-04T18:19:16;1.98;;;1.88;;
73898;SDS011;62234;50.892;12.724;2022-08-04T18:21:43;4.53;;;2.40;;
73898;SDS011;62234;50.892;12.724;2022-08-04T18:24:10;2.33;;;2.10;;
73898;SDS011;62234;50.892;12.724;2022-08-04T18:26:36;2.45;;;2.10;;
73898;SDS011;62234;50.892;12.724;2022-08-04T18:29:03;3.15;;;2.00;;
73898;SDS011;62234;50.892;12.724;2022-08-04T18:31:29;6.53;;;2.13;;
73898;SDS011;62234;50.892;12.724;2022-08-04T18:33:55;2.20;;;1.77;;
73898;SDS011;62234;50.892;12.724;2022-08-04T18:36:22;2.45;;;2.13;;
73898;SDS011;62234;50.892;12.724;2022-08-04T18:38:48;2.40;;;2.20;;
73898;SDS011;62234;50.892;12.724;2022-08-04T18:41:14;1.95;;;1.80;;
73898;SDS011;62234;50.892;12.724;2022-08-04T18:43:40;2.97;;;1.95;;
73898;SDS011;62234;50.892;12.724;2022-08-04T18:46:09;3.65;;;1.90;;
73898;SDS011;62234;50.892;12.724;2022-08-04T18:48:35;1.90;;;1.80;;
73898;SDS011;62234;50.892;12.724;2022-08-04T18:51:01;5.20;;;2.08;;
73898;SDS011;62234;50.892;12.724;2022-08-04T18:53:27;2.22;;;2.13;;
73898;SDS011;62234;50.892;12.724;2022-08-04T18:55:53;3.75;;;2.10;;
73898;SDS011;62234;50.892;12.724;2022-08-04T18:58:19;4.15;;;2.85;;
73898;SDS011;62234;50.892;12.724;2022-08-04T19:00:45;3.00;;;2.10;;
73898;SDS011;62234;50.892;12.724;2022-08-04T19:03:11;4.38;;;2.22;;
73898;SDS011;62234;50.892;12.724;2022-08-04T19:05:36;5.88;;;2.13;;
73898;SDS011;62234;50.892;12.724;2022-08-04T19:08:02;2.13;;;2.03;;